ETX4663 KBFI-KIAD
Flight info
| Callsign | ETX4663 |
|---|---|
| Flight time | N/A |
| Altitude | 45000 |
| Route | ZADON ZELAK ZIRAN ZAXBY BLOWS SWTHN Q156 HSTIN JIBOR J90 OBK DOWER AIR MGW GIBBZ5 |
| Aircraft | LJ35/M-SBDFGHJ1RWY/LB2D2 |
Departure
| Time | 2026-04-26 02:39 |
|---|---|
| Airport | King County International Airport - Boeing Field (KBFI) |
Arrival
| Time | N/A |
|---|---|
| Airport | Washington Dulles International Airport (KIAD) |
| Time | Latitude | Longitude | Altitude | Speed | Heading |
|---|---|---|---|---|---|
| 2026-04-26 02:28 | 47.52516 | -122.29527 | 21 ft | 0 kts | 330° |
| 2026-04-26 02:34 | 47.52517 | -122.29528 | 21 ft | 1 kts | 322° |
| 2026-04-26 02:35 | 47.52508 | -122.29554 | 23 ft | 5 kts | 228° |
| 2026-04-26 02:35 | 47.52496 | -122.29575 | 23 ft | 9 kts | 228° |
| 2026-04-26 02:35 | 47.52421 | -122.29594 | 21 ft | 17 kts | 155° |
| 2026-04-26 02:35 | 47.52313 | -122.29504 | 21 ft | 19 kts | 149° |
| 2026-04-26 02:36 | 47.52197 | -122.29404 | 21 ft | 19 kts | 149° |
| 2026-04-26 02:36 | 47.52154 | -122.29367 | 20 ft | 9 kts | 150° |
| 2026-04-26 02:36 | 47.52086 | -122.29309 | 20 ft | 13 kts | 149° |
| 2026-04-26 02:36 | 47.52005 | -122.29240 | 20 ft | 10 kts | 150° |
| 2026-04-26 02:37 | 47.51942 | -122.29223 | 19 ft | 12 kts | 197° |
| 2026-04-26 02:37 | 47.51890 | -122.29355 | 19 ft | 18 kts | 260° |
| 2026-04-26 02:37 | 47.51836 | -122.29426 | 21 ft | 15 kts | 150° |
| 2026-04-26 02:37 | 47.51725 | -122.29332 | 20 ft | 20 kts | 150° |
| 2026-04-26 02:38 | 47.51668 | -122.29243 | 21 ft | 10 kts | 64° |
| 2026-04-26 02:38 | 47.51747 | -122.29189 | 20 ft | 25 kts | 329° |
| 2026-04-26 02:38 | 47.52132 | -122.29506 | 19 ft | 103 kts | 329° |
| 2026-04-26 02:38 | 47.52942 | -122.30203 | 164 ft | 158 kts | 330° |
| 2026-04-26 02:39 | 47.54115 | -122.31177 | 674 ft | 199 kts | 332° |
| 2026-04-26 02:39 | 47.55283 | -122.32169 | 1243 ft | 216 kts | 330° |
| 2026-04-26 02:39 | 47.56600 | -122.33321 | 1840 ft | 218 kts | 330° |
| 2026-04-26 02:39 | 47.57868 | -122.34447 | 2093 ft | 211 kts | 329° |
| 2026-04-26 02:40 | 47.59133 | -122.35576 | 2107 ft | 214 kts | 330° |
| 2026-04-26 02:40 | 47.60443 | -122.36725 | 2113 ft | 226 kts | 331° |
| 2026-04-26 02:40 | 47.61890 | -122.37710 | 2106 ft | 240 kts | 348° |
| 2026-04-26 02:40 | 47.63590 | -122.37521 | 2376 ft | 248 kts | 20° |
| 2026-04-26 02:41 | 47.64939 | -122.35994 | 3058 ft | 252 kts | 50° |
| 2026-04-26 02:41 | 47.65641 | -122.33610 | 3684 ft | 258 kts | 79° |
| 2026-04-26 02:41 | 47.65524 | -122.30953 | 4353 ft | 262 kts | 100° |
| 2026-04-26 02:41 | 47.65037 | -122.28357 | 5384 ft | 260 kts | 104° |
| 2026-04-26 02:42 | 47.64553 | -122.25757 | 6532 ft | 261 kts | 101° |
| 2026-04-26 02:42 | 47.64150 | -122.23121 | 7736 ft | 264 kts | 100° |
| 2026-04-26 02:42 | 47.63740 | -122.20431 | 9031 ft | 269 kts | 101° |
| 2026-04-26 02:42 | 47.63305 | -122.17702 | 10267 ft | 274 kts | 101° |
| 2026-04-26 02:43 | 47.62411 | -122.12139 | 12577 ft | 285 kts | 101° |
| 2026-04-26 02:43 | 47.61951 | -122.09249 | 13751 ft | 290 kts | 101° |
| 2026-04-26 02:43 | 47.61477 | -122.06297 | 14759 ft | 297 kts | 100° |
| 2026-04-26 02:44 | 47.60996 | -122.03287 | 15757 ft | 303 kts | 99° |
| 2026-04-26 02:44 | 47.60497 | -122.00214 | 16774 ft | 309 kts | 99° |
| 2026-04-26 02:44 | 47.59999 | -121.97096 | 17783 ft | 315 kts | 98° |
| 2026-04-26 02:44 | 47.59482 | -121.93890 | 18698 ft | 322 kts | 99° |
| 2026-04-26 02:45 | 47.58956 | -121.90646 | 19586 ft | 327 kts | 99° |
| 2026-04-26 02:45 | 47.58417 | -121.87338 | 20489 ft | 332 kts | 100° |
| 2026-04-26 02:45 | 47.57880 | -121.84024 | 21347 ft | 338 kts | 101° |
| 2026-04-26 02:45 | 47.57321 | -121.80576 | 22235 ft | 343 kts | 101° |
| 2026-04-26 02:46 | 47.56754 | -121.77113 | 23092 ft | 349 kts | 102° |
| 2026-04-26 02:46 | 47.56257 | -121.73620 | 23866 ft | 353 kts | 94° |
| 2026-04-26 02:46 | 47.56178 | -121.69976 | 24623 ft | 355 kts | 88° |
| 2026-04-26 02:46 | 47.56143 | -121.66297 | 25360 ft | 360 kts | 89° |
| 2026-04-26 02:47 | 47.56084 | -121.62561 | 26104 ft | 365 kts | 89° |
| 2026-04-26 02:47 | 47.56030 | -121.58828 | 26823 ft | 369 kts | 89° |
| 2026-04-26 02:47 | 47.55983 | -121.54996 | 27520 ft | 373 kts | 89° |
| 2026-04-26 02:47 | 47.55935 | -121.51136 | 28217 ft | 377 kts | 89° |
| 2026-04-26 02:48 | 47.55877 | -121.47212 | 28877 ft | 382 kts | 89° |
| 2026-04-26 02:48 | 47.55820 | -121.43271 | 29525 ft | 386 kts | 89° |
| 2026-04-26 02:48 | 47.55761 | -121.39276 | 30105 ft | 390 kts | 89° |
| 2026-04-26 02:48 | 47.55699 | -121.35241 | 30633 ft | 393 kts | 89° |
| 2026-04-26 02:49 | 47.55635 | -121.31187 | 31137 ft | 396 kts | 89° |
| 2026-04-26 02:49 | 47.55576 | -121.27115 | 31620 ft | 399 kts | 89° |
| 2026-04-26 02:49 | 47.55498 | -121.22974 | 32051 ft | 402 kts | 89° |
| 2026-04-26 02:49 | 47.55432 | -121.18888 | 32513 ft | 404 kts | 89° |
| 2026-04-26 02:50 | 47.55374 | -121.14717 | 33052 ft | 404 kts | 89° |
| 2026-04-26 02:50 | 47.55312 | -121.11135 | 33561 ft | 402 kts | 89° |
| 2026-04-26 02:50 | 47.55221 | -121.06439 | 34137 ft | 401 kts | 89° |
| 2026-04-26 02:50 | 47.55145 | -121.02299 | 34542 ft | 402 kts | 89° |
| 2026-04-26 02:51 | 47.55073 | -120.98162 | 34931 ft | 403 kts | 89° |
| 2026-04-26 02:51 | 47.54996 | -120.94010 | 35332 ft | 403 kts | 89° |
| 2026-04-26 02:51 | 47.54915 | -120.89864 | 35703 ft | 404 kts | 89° |
| 2026-04-26 02:51 | 47.54834 | -120.85701 | 36078 ft | 404 kts | 89° |
| 2026-04-26 02:52 | 47.54750 | -120.81529 | 36438 ft | 405 kts | 90° |
| 2026-04-26 02:52 | 47.54667 | -120.77395 | 36788 ft | 406 kts | 90° |
| 2026-04-26 02:52 | 47.54585 | -120.73229 | 37152 ft | 406 kts | 90° |
| 2026-04-26 02:52 | 47.54498 | -120.69030 | 37500 ft | 407 kts | 90° |
| 2026-04-26 02:53 | 47.54404 | -120.64847 | 37880 ft | 407 kts | 90° |
| 2026-04-26 02:53 | 47.54313 | -120.60654 | 38238 ft | 408 kts | 90° |
| 2026-04-26 02:53 | 47.54224 | -120.56456 | 38582 ft | 408 kts | 90° |
| 2026-04-26 02:53 | 47.54129 | -120.52252 | 38847 ft | 409 kts | 90° |
| 2026-04-26 02:54 | 47.54032 | -120.48047 | 39123 ft | 408 kts | 90° |
| 2026-04-26 02:54 | 47.53937 | -120.43855 | 39393 ft | 408 kts | 90° |
| 2026-04-26 02:54 | 47.53843 | -120.39647 | 39658 ft | 408 kts | 90° |
| 2026-04-26 02:54 | 47.53784 | -120.35445 | 39915 ft | 408 kts | 89° |
| 2026-04-26 02:55 | 47.53744 | -120.31237 | 40184 ft | 409 kts | 89° |
| 2026-04-26 02:55 | 47.53685 | -120.27041 | 40453 ft | 408 kts | 90° |
| 2026-04-26 02:55 | 47.53607 | -120.22832 | 40713 ft | 408 kts | 90° |
| 2026-04-26 02:55 | 47.53537 | -120.18630 | 40967 ft | 408 kts | 90° |
| 2026-04-26 02:56 | 47.53476 | -120.14491 | 41205 ft | 408 kts | 90° |
| 2026-04-26 02:56 | 47.53409 | -120.10230 | 41446 ft | 408 kts | 90° |
| 2026-04-26 02:56 | 47.53338 | -120.06094 | 41680 ft | 408 kts | 90° |